createdAt,value
2023-04-26T00:00:09.715Z,48.87
2023-04-26T00:02:37.612Z,49.30
2023-04-26T00:05:09.972Z,49.00
2023-04-26T00:07:39.035Z,48.94
2023-04-26T00:10:07.501Z,49.82
2023-04-26T00:12:36.865Z,49.10
2023-04-26T00:15:05.413Z,49.30
2023-04-26T00:17:33.237Z,49.55
2023-04-26T00:20:02.014Z,49.26
2023-04-26T00:22:31.378Z,49.08
2023-04-26T00:24:59.127Z,49.34
2023-04-26T00:27:27.648Z,50.04
2023-04-26T00:29:55.409Z,49.23
2023-04-26T00:32:23.206Z,49.69
2023-04-26T00:34:51.506Z,49.62
2023-04-26T00:37:19.290Z,49.40
2023-04-26T00:39:48.430Z,50.37
2023-04-26T00:42:16.695Z,49.44
2023-04-26T00:44:44.460Z,49.94
2023-04-26T00:47:12.282Z,49.87
2023-04-26T00:49:40.661Z,49.60
2023-04-26T00:52:08.967Z,49.81
2023-04-26T00:54:36.780Z,50.49
2023-04-26T00:57:07.790Z,49.43
2023-04-26T00:59:36.429Z,49.92
2023-04-26T01:02:04.400Z,49.67
2023-04-26T01:04:33.723Z,49.89
2023-04-26T01:07:03.040Z,49.55
2023-04-26T01:09:33.830Z,49.56
2023-04-26T01:12:01.972Z,50.22
2023-04-26T01:14:31.564Z,49.81
2023-04-26T01:17:00.157Z,49.68
2023-04-26T01:19:28.009Z,50.06
2023-04-26T01:21:56.236Z,50.06
2023-04-26T01:24:26.461Z,50.65
2023-04-26T01:26:54.230Z,50.14
2023-04-26T01:29:24.273Z,49.83
2023-04-26T01:31:52.403Z,50.62
2023-04-26T01:34:20.217Z,50.88
2023-04-26T01:36:48.018Z,50.25
2023-04-26T01:39:16.285Z,49.66
2023-04-26T01:41:45.523Z,50.26
2023-04-26T01:44:13.305Z,50.62
2023-04-26T01:46:42.367Z,50.53
2023-04-26T01:49:10.211Z,50.16
2023-04-26T01:51:38.024Z,50.49
2023-04-26T01:54:07.173Z,50.53
2023-04-26T01:56:34.952Z,51.02
2023-04-26T01:59:04.270Z,50.09
2023-04-26T02:01:32.485Z,50.49
2023-04-26T02:04:00.302Z,50.49
2023-04-26T02:06:28.105Z,50.24
2023-04-26T02:08:56.881Z,50.99
2023-04-26T02:11:24.750Z,50.65
2023-04-26T02:13:52.768Z,49.94
2023-04-26T02:16:22.980Z,50.33
2023-04-26T02:18:51.052Z,50.35
2023-04-26T02:21:19.289Z,50.23
2023-04-26T02:23:47.608Z,50.31
2023-04-26T02:26:16.223Z,50.45
2023-04-26T02:28:44.005Z,49.93
2023-04-26T02:31:12.843Z,51.04
2023-04-26T02:33:42.044Z,51.50
2023-04-26T02:36:10.085Z,51.29
2023-04-26T02:38:39.035Z,50.63
2023-04-26T02:41:06.807Z,50.65
2023-04-26T02:43:34.646Z,50.36
2023-04-26T02:46:02.890Z,50.99
2023-04-26T02:48:30.723Z,51.15
2023-04-26T02:50:59.911Z,51.72
2023-04-26T02:53:28.313Z,51.37
2023-04-26T02:55:56.130Z,51.28
2023-04-26T02:58:24.001Z,51.69
2023-04-26T03:00:52.606Z,50.88
2023-04-26T03:03:20.540Z,51.47
2023-04-26T03:05:48.430Z,52.26
2023-04-26T03:08:18.400Z,51.36
2023-04-26T03:10:46.617Z,51.42
2023-04-26T03:13:15.161Z,52.37
2023-04-26T03:15:47.205Z,51.68
2023-04-26T03:18:15.005Z,51.43
2023-04-26T03:20:43.613Z,51.47
2023-04-26T03:23:11.964Z,51.96
2023-04-26T03:25:41.201Z,51.76
2023-04-26T03:28:08.958Z,51.52
2023-04-26T03:30:37.270Z,52.44
2023-04-26T03:33:05.158Z,52.44
2023-04-26T03:35:32.981Z,52.30
2023-04-26T03:38:01.397Z,51.96
2023-04-26T03:40:29.167Z,51.98
2023-04-26T03:42:58.303Z,51.73
2023-04-26T03:45:27.431Z,51.73
2023-04-26T03:47:55.410Z,52.23
2023-04-26T03:50:23.537Z,52.26
2023-04-26T03:52:51.990Z,52.55
2023-04-26T03:55:19.826Z,52.08
2023-04-26T03:57:47.813Z,51.96
2023-04-26T04:00:17.915Z,52.41
2023-04-26T04:02:46.162Z,52.57
2023-04-26T04:05:14.339Z,52.90
2023-04-26T04:07:43.325Z,52.31
2023-04-26T04:10:11.836Z,52.59
2023-04-26T04:12:39.647Z,52.62
2023-04-26T04:15:08.995Z,53.10
2023-04-26T04:17:38.912Z,52.10
2023-04-26T04:20:09.349Z,52.80
2023-04-26T04:22:39.472Z,52.61
2023-04-26T04:25:08.047Z,52.17
2023-04-26T04:27:37.395Z,52.55
2023-04-26T04:30:07.424Z,53.37
2023-04-26T04:32:35.506Z,53.44
2023-04-26T04:35:05.853Z,53.24
2023-04-26T04:37:34.789Z,53.44
2023-04-26T04:40:02.738Z,53.39
2023-04-26T04:42:31.131Z,56.80
2023-04-26T04:44:59.785Z,58.84
2023-04-26T04:47:27.615Z,55.09
2023-04-26T04:49:56.037Z,53.32
2023-04-26T04:52:25.185Z,52.80
2023-04-26T04:54:52.947Z,52.85
2023-04-26T04:57:21.253Z,53.83
2023-04-26T04:59:49.046Z,53.04
2023-04-26T05:02:17.022Z,53.55
2023-04-26T05:04:45.091Z,53.71
2023-04-26T05:07:15.492Z,54.00
2023-04-26T05:09:44.753Z,53.50
2023-04-26T05:12:13.222Z,53.73
2023-04-26T05:14:41.299Z,53.54
2023-04-26T05:17:09.071Z,54.38
2023-04-26T05:19:37.658Z,53.57
2023-04-26T05:22:05.456Z,54.69
2023-04-26T05:24:33.276Z,54.41
2023-04-26T05:27:04.632Z,53.84
2023-04-26T05:29:32.465Z,54.30
2023-04-26T05:32:00.306Z,54.24
2023-04-26T05:34:28.505Z,54.51
2023-04-26T05:36:56.303Z,54.17
2023-04-26T05:39:24.076Z,54.38
2023-04-26T05:41:52.696Z,54.90
2023-04-26T05:44:21.891Z,54.49
2023-04-26T05:46:49.719Z,54.35
2023-04-26T05:49:17.789Z,55.30
2023-04-26T05:51:45.584Z,54.52
2023-04-26T05:54:13.354Z,55.46
2023-04-26T05:56:41.759Z,55.16
2023-04-26T05:59:09.582Z,55.85
2023-04-26T06:01:38.726Z,55.72
2023-04-26T06:04:07.986Z,55.13
2023-04-26T06:06:36.044Z,54.28
2023-04-26T06:09:04.447Z,56.10
2023-04-26T06:11:32.792Z,56.21
2023-04-26T06:14:00.572Z,56.35
2023-04-26T06:16:28.405Z,56.25
2023-04-26T06:18:58.263Z,56.54
2023-04-26T06:21:26.372Z,57.10
2023-04-26T06:23:54.478Z,57.42
2023-04-26T06:26:23.117Z,56.96
2023-04-26T06:28:51.515Z,57.52
2023-04-26T06:31:21.738Z,57.35
2023-04-26T06:33:50.488Z,56.75
2023-04-26T06:36:19.834Z,57.09
2023-04-26T06:38:47.691Z,57.56
2023-04-26T06:41:15.967Z,57.18
2023-04-26T06:43:43.801Z,58.23
2023-04-26T06:46:11.645Z,56.88
2023-04-26T06:48:40.082Z,57.78
2023-04-26T06:51:08.510Z,57.22
2023-04-26T06:53:37.911Z,56.46
2023-04-26T06:56:06.575Z,56.25
2023-04-26T06:58:34.440Z,56.43
2023-04-26T07:01:02.584Z,55.16
2023-04-26T07:03:31.405Z,54.67
2023-04-26T07:05:59.354Z,55.54
2023-04-26T07:08:27.119Z,55.28
2023-04-26T07:10:56.404Z,54.50
2023-04-26T07:13:24.210Z,53.47
2023-04-26T07:15:52.277Z,53.68
2023-04-26T07:18:20.732Z,53.23
2023-04-26T07:20:49.133Z,53.31
2023-04-26T07:23:17.016Z,53.14
2023-04-26T07:25:45.500Z,52.71
2023-04-26T07:28:14.683Z,52.71
2023-04-26T07:30:42.801Z,52.56
2023-04-26T07:33:11.381Z,52.83
2023-04-26T07:35:39.429Z,52.62
2023-04-26T07:38:07.285Z,52.83
2023-04-26T07:40:35.681Z,52.84
2023-04-26T07:43:03.596Z,52.40
2023-04-26T07:45:33.706Z,52.36
2023-04-26T07:48:02.126Z,52.31
2023-04-26T07:50:30.001Z,51.79
2023-04-26T07:52:57.882Z,52.06
2023-04-26T07:55:27.553Z,51.64
2023-04-26T07:57:55.438Z,52.07
2023-04-26T08:00:23.484Z,50.65
2023-04-26T08:02:53.804Z,51.18
2023-04-26T08:05:22.249Z,50.77
2023-04-26T08:07:50.492Z,50.82
2023-04-26T08:10:18.681Z,49.66
2023-04-26T08:12:46.520Z,49.93
2023-04-26T08:15:14.426Z,49.83
2023-04-26T08:17:42.710Z,50.25
2023-04-26T08:20:13.040Z,49.56
2023-04-26T08:22:40.854Z,49.93
2023-04-26T08:25:09.851Z,49.65
2023-04-26T08:27:37.714Z,48.51
2023-04-26T08:30:06.375Z,47.75
2023-04-26T08:32:35.661Z,47.43
2023-04-26T08:35:03.506Z,48.18
2023-04-26T08:37:32.663Z,47.10
2023-04-26T08:40:00.649Z,45.63
2023-04-26T08:42:29.527Z,44.44
2023-04-26T08:45:01.905Z,45.12
2023-04-26T08:47:35.108Z,46.01
2023-04-26T08:50:04.924Z,45.10
2023-04-26T08:52:34.115Z,45.45
2023-04-26T08:55:02.169Z,43.29
2023-04-26T08:57:33.681Z,45.16
2023-04-26T09:00:05.656Z,45.07
2023-04-26T09:02:34.917Z,42.94
2023-04-26T09:05:03.300Z,43.30
2023-04-26T09:07:33.865Z,41.19
2023-04-26T09:10:06.927Z,43.31
2023-04-26T09:12:34.862Z,43.00
2023-04-26T09:15:04.023Z,43.89
2023-04-26T09:17:34.727Z,43.96
2023-04-26T09:20:07.995Z,43.80
2023-04-26T09:22:38.073Z,41.61
2023-04-26T09:25:08.490Z,41.74
2023-04-26T09:27:38.655Z,41.91
2023-04-26T09:30:07.890Z,43.10
2023-04-26T09:32:47.703Z,43.73
2023-04-26T09:35:23.892Z,41.81
2023-04-26T09:38:03.304Z,42.75
2023-04-26T09:40:36.896Z,42.81
2023-04-26T09:43:06.165Z,42.77
2023-04-26T09:45:43.701Z,43.43
2023-04-26T09:48:17.670Z,42.51
2023-04-26T09:50:47.035Z,42.17
2023-04-26T09:53:30.180Z,41.90
2023-04-26T09:56:07.868Z,42.08
2023-04-26T09:58:36.708Z,42.38
2023-04-26T10:01:05.448Z,40.93
2023-04-26T10:03:35.614Z,40.34
2023-04-26T10:06:04.578Z,44.34
2023-04-26T10:08:33.144Z,40.95
2023-04-26T10:11:04.973Z,40.77
2023-04-26T10:13:33.444Z,41.89
2023-04-26T10:16:02.272Z,41.74
2023-04-26T10:18:31.070Z,42.17
2023-04-26T10:21:03.277Z,41.35
2023-04-26T10:23:31.857Z,41.23
2023-04-26T10:26:00.499Z,40.34
2023-04-26T10:29:02.060Z,41.25
2023-04-26T10:32:04.337Z,40.33
2023-04-26T10:34:34.656Z,39.39
2023-04-26T10:37:09.559Z,39.73
2023-04-26T10:39:38.760Z,41.06
2023-04-26T10:42:26.345Z,40.83
2023-04-26T10:44:56.704Z,38.27
2023-04-26T10:47:27.763Z,39.66
2023-04-26T10:50:05.817Z,37.35
2023-04-26T10:52:34.239Z,39.92
2023-04-26T10:55:02.715Z,39.06
2023-04-26T10:57:53.944Z,40.19
2023-04-26T11:00:33.225Z,38.24
2023-04-26T11:03:12.108Z,37.73
2023-04-26T11:05:51.845Z,36.14
2023-04-26T11:08:21.120Z,38.62
2023-04-26T11:10:54.096Z,37.94
2023-04-26T11:13:22.437Z,37.54
2023-04-26T11:15:55.793Z,38.37
2023-04-26T11:18:24.224Z,36.73
2023-04-26T11:20:52.209Z,36.51
2023-04-26T11:23:21.209Z,37.34
2023-04-26T11:25:49.708Z,37.25
2023-04-26T11:28:17.799Z,37.15
2023-04-26T11:30:45.753Z,36.63
2023-04-26T11:33:20.351Z,38.01
2023-04-26T11:35:48.985Z,36.66
2023-04-26T11:38:17.161Z,36.67
2023-04-26T11:40:45.970Z,36.95
2023-04-26T11:43:15.456Z,36.63
2023-04-26T11:45:43.368Z,38.22
2023-04-26T11:48:14.087Z,37.31
2023-04-26T11:50:43.490Z,38.71
2023-04-26T11:53:11.343Z,37.36
2023-04-26T11:55:42.293Z,34.39
2023-04-26T11:58:12.668Z,36.25
2023-04-26T12:00:59.540Z,37.16
2023-04-26T12:03:32.279Z,36.83
2023-04-26T12:06:02.748Z,35.60
2023-04-26T12:08:32.932Z,35.39
2023-04-26T12:11:02.832Z,34.55
2023-04-26T12:13:32.536Z,35.17
2023-04-26T12:16:00.413Z,35.35
2023-04-26T12:18:33.428Z,33.97
2023-04-26T12:21:02.810Z,34.84
2023-04-26T12:23:39.696Z,36.43
2023-04-26T12:26:10.736Z,34.57
2023-04-26T12:28:39.578Z,35.20
2023-04-26T12:31:07.696Z,35.02
2023-04-26T12:33:36.037Z,34.33
2023-04-26T12:36:14.218Z,34.40
2023-04-26T12:38:42.069Z,36.09
2023-04-26T12:41:09.987Z,35.25
2023-04-26T12:43:38.041Z,34.43
2023-04-26T12:46:06.104Z,34.10
2023-04-26T12:48:34.067Z,34.59
2023-04-26T12:51:02.344Z,33.95
2023-04-26T12:53:31.569Z,33.53
2023-04-26T12:55:59.814Z,33.19
2023-04-26T12:58:29.361Z,33.66
2023-04-26T13:00:57.199Z,33.96
2023-04-26T13:03:25.415Z,33.20
2023-04-26T13:05:54.040Z,32.27
2023-04-26T13:08:22.714Z,33.12
2023-04-26T13:10:52.419Z,32.60
2023-04-26T13:13:26.182Z,33.44
2023-04-26T13:15:57.276Z,32.42
2023-04-26T13:18:25.678Z,33.37
2023-04-26T13:20:54.161Z,32.29
2023-04-26T13:23:21.950Z,33.03
2023-04-26T13:25:51.717Z,33.09
2023-04-26T13:28:19.492Z,33.35
2023-04-26T13:30:47.584Z,33.74
2023-04-26T13:33:16.126Z,33.34
2023-04-26T13:35:44.023Z,33.47
2023-04-26T13:38:13.126Z,33.46
2023-04-26T13:40:41.786Z,33.29
2023-04-26T13:43:10.983Z,33.62
2023-04-26T13:45:38.904Z,33.72
2023-04-26T13:48:07.592Z,33.34
2023-04-26T13:50:36.959Z,33.73
2023-04-26T13:53:05.392Z,33.71
2023-04-26T13:55:33.667Z,33.17
2023-04-26T13:58:01.450Z,34.35
2023-04-26T14:00:30.646Z,33.01
2023-04-26T14:02:58.853Z,33.84
2023-04-26T14:05:26.803Z,33.75
2023-04-26T14:07:55.204Z,33.67
2023-04-26T14:10:23.573Z,34.42
2023-04-26T14:12:51.600Z,32.91
2023-04-26T14:15:19.374Z,33.25
2023-04-26T14:17:49.026Z,32.52
2023-04-26T14:20:16.709Z,33.86
2023-04-26T14:22:44.779Z,34.71
2023-04-26T14:25:12.760Z,33.52
2023-04-26T14:27:40.554Z,33.44
2023-04-26T14:30:09.251Z,33.05
2023-04-26T14:32:37.319Z,33.00
2023-04-26T14:35:07.373Z,33.29
2023-04-26T14:37:35.196Z,33.60
2023-04-26T14:40:03.319Z,33.42
2023-04-26T14:42:31.105Z,32.80
2023-04-26T14:44:59.848Z,33.23
2023-04-26T14:47:27.918Z,31.97
2023-04-26T14:49:55.935Z,33.19
2023-04-26T14:52:27.074Z,32.51
2023-04-26T14:54:54.994Z,31.68
2023-04-26T14:57:22.953Z,32.85
2023-04-26T14:59:50.874Z,33.17
2023-04-26T15:02:19.725Z,32.60
2023-04-26T15:04:47.735Z,32.81
2023-04-26T15:07:28.681Z,31.73
2023-04-26T15:10:01.792Z,32.48
2023-04-26T15:12:29.857Z,31.65
2023-04-26T15:14:57.715Z,32.43
2023-04-26T15:17:25.715Z,32.16
2023-04-26T15:19:53.496Z,33.17
2023-04-26T15:22:21.483Z,32.37
2023-04-26T15:24:51.195Z,32.15
2023-04-26T15:27:20.665Z,31.29
2023-04-26T15:29:48.418Z,31.74
2023-04-26T15:32:16.491Z,32.64
2023-04-26T15:34:45.189Z,31.63
2023-04-26T15:37:13.110Z,32.33
2023-04-26T15:39:41.295Z,32.40
2023-04-26T15:42:09.039Z,32.65
2023-04-26T15:44:38.244Z,32.49
2023-04-26T15:47:06.359Z,32.34
2023-04-26T15:49:34.174Z,33.48
2023-04-26T15:52:02.001Z,32.79
2023-04-26T15:54:29.992Z,32.84
2023-04-26T15:56:58.202Z,31.51
2023-04-26T15:59:26.400Z,32.49
2023-04-26T16:01:55.818Z,32.20
2023-04-26T16:04:23.922Z,32.48
2023-04-26T16:06:51.869Z,31.91
2023-04-26T16:11:51.445Z,31.58
2023-04-26T16:14:19.300Z,32.46
2023-04-26T16:16:47.631Z,32.68
2023-04-26T16:19:17.260Z,32.11
2023-04-26T16:21:44.871Z,32.93
2023-04-26T16:24:13.222Z,31.70
2023-04-26T16:26:41.339Z,31.54
2023-04-26T16:29:09.374Z,31.42
2023-04-26T16:31:37.750Z,32.01
2023-04-26T16:34:05.621Z,31.75
2023-04-26T16:36:35.475Z,30.91
2023-04-26T16:39:03.680Z,31.93
2023-04-26T16:41:31.446Z,32.60
2023-04-26T16:43:59.242Z,32.19
2023-04-26T16:46:27.667Z,31.99
2023-04-26T16:48:55.593Z,32.50
2023-04-26T16:51:23.519Z,32.57
2023-04-26T16:53:53.207Z,32.51
2023-04-26T16:56:20.854Z,32.52
2023-04-26T16:58:49.253Z,32.28
2023-04-26T17:01:17.741Z,32.98
2023-04-26T17:03:46.410Z,33.49
2023-04-26T17:06:14.415Z,33.61
2023-04-26T17:08:42.431Z,33.51
2023-04-26T17:11:15.192Z,32.83
2023-04-26T17:13:43.503Z,33.07
2023-04-26T17:16:12.024Z,32.83
2023-04-26T17:18:40.010Z,33.23
2023-04-26T17:21:08.030Z,32.83
2023-04-26T17:23:35.843Z,33.58
2023-04-26T17:26:04.237Z,33.38
2023-04-26T17:28:33.605Z,33.52
2023-04-26T17:31:01.559Z,33.36
2023-04-26T17:33:29.310Z,32.76
2023-04-26T17:35:57.481Z,33.09
2023-04-26T17:38:25.261Z,33.55
2023-04-26T17:40:54.531Z,33.72
2023-04-26T17:43:22.662Z,33.11
2023-04-26T17:45:51.820Z,33.58
2023-04-26T17:48:19.678Z,33.51
2023-04-26T17:50:47.726Z,33.94
2023-04-26T17:53:16.073Z,33.92
2023-04-26T17:55:44.064Z,33.57
2023-04-26T17:58:11.942Z,33.96
2023-04-26T18:00:39.704Z,33.79
2023-04-26T18:03:09.299Z,33.59
2023-04-26T18:05:36.948Z,34.04
2023-04-26T18:08:05.210Z,33.92
2023-04-26T18:10:33.007Z,34.22
2023-04-26T18:13:00.752Z,33.04
2023-04-26T18:15:28.570Z,34.16
2023-04-26T18:17:56.707Z,33.82
2023-04-26T18:20:26.050Z,34.34
2023-04-26T18:22:53.794Z,34.26
2023-04-26T18:25:21.936Z,34.30
2023-04-26T18:27:49.720Z,34.66
2023-04-26T18:30:18.281Z,35.23
2023-04-26T18:32:46.089Z,35.28
2023-04-26T18:35:14.072Z,35.37
2023-04-26T18:37:43.222Z,35.52
2023-04-26T18:40:12.108Z,35.80
2023-04-26T18:42:39.870Z,35.56
2023-04-26T18:45:09.444Z,35.63
2023-04-26T18:47:37.491Z,36.30
2023-04-26T18:50:06.068Z,36.19
2023-04-26T18:52:35.119Z,36.82
2023-04-26T18:55:04.655Z,37.46
2023-04-26T18:57:32.397Z,37.09
2023-04-26T19:00:00.273Z,37.99
2023-04-26T19:02:28.197Z,38.05
2023-04-26T19:04:56.149Z,38.04
2023-04-26T19:07:24.021Z,38.52
2023-04-26T19:09:54.688Z,38.54
2023-04-26T19:12:24.721Z,38.75
2023-04-26T19:14:52.775Z,39.09
2023-04-26T19:17:20.722Z,39.14
2023-04-26T19:19:51.591Z,39.44
2023-04-26T19:22:19.826Z,39.57
2023-04-26T19:24:49.647Z,40.20
2023-04-26T19:27:17.519Z,39.83
2023-04-26T19:29:46.932Z,40.23
2023-04-26T19:32:15.170Z,40.29
2023-04-26T19:34:43.374Z,40.49
2023-04-26T19:37:11.788Z,40.11
2023-04-26T19:39:39.618Z,40.45
2023-04-26T19:42:07.477Z,40.48
2023-04-26T19:44:35.724Z,40.39
2023-04-26T19:47:05.222Z,41.24
2023-04-26T19:49:33.197Z,40.76
2023-04-26T19:52:02.968Z,41.07
2023-04-26T19:54:32.054Z,40.91
2023-04-26T19:56:59.869Z,41.17
2023-04-26T19:59:28.192Z,40.98
2023-04-26T20:01:55.982Z,41.29
2023-04-26T20:04:25.772Z,41.44
2023-04-26T20:06:54.117Z,41.05
2023-04-26T20:09:21.937Z,41.19
2023-04-26T20:11:50.253Z,41.17
2023-04-26T20:14:18.476Z,41.39
2023-04-26T20:16:46.303Z,41.72
2023-04-26T20:19:16.830Z,41.46
2023-04-26T20:21:46.303Z,41.94
2023-04-26T20:24:15.023Z,41.78
2023-04-26T20:26:42.787Z,41.79
2023-04-26T20:29:10.768Z,41.63
2023-04-26T20:31:39.985Z,41.98
2023-04-26T20:34:07.807Z,41.83
2023-04-26T20:36:35.764Z,42.32
2023-04-26T20:39:05.246Z,41.93
2023-04-26T20:41:32.994Z,41.53
2023-04-26T20:44:01.107Z,42.17
2023-04-26T20:46:29.039Z,42.46
2023-04-26T20:48:56.875Z,42.52
2023-04-26T20:51:25.102Z,43.12
2023-04-26T20:53:52.879Z,42.76
2023-04-26T20:56:22.070Z,42.95
2023-04-26T20:58:50.056Z,42.98
2023-04-26T21:01:17.890Z,43.34
2023-04-26T21:03:45.878Z,43.39
2023-04-26T21:06:13.756Z,43.39
2023-04-26T21:08:42.984Z,43.37
2023-04-26T21:11:10.750Z,43.38
2023-04-26T21:13:40.131Z,43.35
2023-04-26T21:16:08.537Z,43.64
2023-04-26T21:18:36.427Z,43.48
2023-04-26T21:21:04.636Z,43.72
2023-04-26T21:23:33.178Z,43.54
2023-04-26T21:26:00.963Z,43.72
2023-04-26T21:28:29.508Z,43.52
2023-04-26T21:31:05.315Z,43.44
2023-04-26T21:33:34.666Z,43.63
2023-04-26T21:36:02.431Z,43.82
2023-04-26T21:38:30.204Z,43.94
2023-04-26T21:40:58.531Z,44.08
2023-04-26T21:43:26.340Z,43.95
2023-04-26T21:45:58.630Z,44.26
2023-04-26T21:48:27.906Z,44.37
2023-04-26T21:50:55.841Z,44.37
2023-04-26T21:53:24.177Z,44.49
2023-04-26T21:55:53.315Z,44.69
2023-04-26T21:58:21.599Z,44.77
2023-04-26T22:00:50.226Z,44.70
2023-04-26T22:03:18.572Z,44.96
2023-04-26T22:05:47.956Z,45.02
2023-04-26T22:08:16.464Z,45.35
2023-04-26T22:10:44.248Z,45.21
2023-04-26T22:13:12.056Z,45.50
2023-04-26T22:15:40.503Z,45.57
2023-04-26T22:18:08.490Z,45.68
2023-04-26T22:20:36.520Z,45.58
2023-04-26T22:23:06.192Z,45.93
2023-04-26T22:25:33.756Z,44.37
2023-04-26T22:28:03.150Z,45.75
2023-04-26T22:30:31.696Z,45.62
2023-04-26T22:32:59.793Z,45.71
2023-04-26T22:35:28.970Z,45.91
2023-04-26T22:37:57.418Z,45.97
2023-04-26T22:40:26.628Z,46.11
2023-04-26T22:42:54.580Z,45.86
2023-04-26T22:45:23.110Z,46.23
2023-04-26T22:47:51.003Z,46.26
2023-04-26T22:50:19.258Z,46.32
2023-04-26T22:52:47.758Z,46.56
2023-04-26T22:55:15.603Z,46.65
2023-04-26T22:57:44.736Z,46.67
2023-04-26T23:00:15.076Z,46.40
2023-04-26T23:02:43.404Z,46.41
2023-04-26T23:05:11.988Z,46.42
2023-04-26T23:07:41.184Z,46.20
2023-04-26T23:10:09.813Z,46.52
2023-04-26T23:12:37.646Z,46.75
2023-04-26T23:15:08.424Z,46.39
2023-04-26T23:17:36.269Z,46.94
2023-04-26T23:20:12.378Z,46.99
2023-04-26T23:22:41.380Z,46.98
2023-04-26T23:25:10.184Z,47.37
2023-04-26T23:27:39.311Z,47.11
2023-04-26T23:30:09.679Z,47.37
2023-04-26T23:32:37.543Z,47.15
2023-04-26T23:35:07.035Z,47.43
2023-04-26T23:37:34.893Z,47.66
2023-04-26T23:40:05.246Z,47.43
2023-04-26T23:42:33.509Z,47.65
2023-04-26T23:45:01.466Z,47.65
2023-04-26T23:47:31.985Z,47.57
2023-04-26T23:50:00.510Z,47.58
2023-04-26T23:52:28.633Z,47.61
2023-04-26T23:54:56.438Z,47.20
2023-04-26T23:57:24.582Z,47.43
2023-04-26T23:59:52.801Z,47.49
